Time;durP1;ratioP1;P1;durP2;ratioP2;P2;SDS_P1;SDS_P2;PMS_P1;PMS_P2;Temp;Humidity;BMP_temperature;BMP_pressure;BME280_temperature;BME280_humidity;BME280_pressure;Samples;Min_cycle;Max_cycle;Signal;HPM_P1;HPM_P2
2021/04/13 00:01:12;;;;;;;9.85;5.68;;;-0.60;99.90;;;;;;4994561;28;20597;-85
2021/04/13 00:03:51;;;;;;;13.43;6.15;;;-0.60;99.90;;;;;;5010159;28;20066;-85
2021/04/13 00:06:25;;;;;;;13.98;7.30;;;-0.60;99.90;;;;;;4994667;28;20322;-85
2021/04/13 00:08:58;;;;;;;9.05;6.28;;;-0.50;99.90;;;;;;4995146;28;20050;-85
2021/04/13 00:11:26;;;;;;;11.73;7.68;;;-0.50;99.90;;;;;;4994932;28;20129;-85
2021/04/13 00:14:00;;;;;;;29.10;9.45;;;-0.60;99.90;;;;;;4994976;28;20133;-85
2021/04/13 00:16:29;;;;;;;24.67;10.18;;;-0.60;99.90;;;;;;5009926;28;20511;-84
2021/04/13 00:18:57;;;;;;;21.17;9.05;;;-0.60;99.90;;;;;;5009792;28;20054;-85
2021/04/13 00:21:35;;;;;;;11.57;7.10;;;-0.60;99.90;;;;;;5009706;28;20054;-85
2021/04/13 00:24:08;;;;;;;23.60;9.55;;;-0.60;99.90;;;;;;4992962;28;20046;-85
2021/04/13 00:26:35;;;;;;;17.13;8.20;;;-0.60;99.90;;;;;;5009764;28;20202;-85
2021/04/13 00:29:10;;;;;;;13.30;7.82;;;-0.60;99.90;;;;;;4993739;28;20057;-85
2021/04/13 00:31:43;;;;;;;14.35;8.43;;;-0.40;99.90;;;;;;5009935;28;20136;-85
2021/04/13 00:34:24;;;;;;;12.95;8.02;;;-0.40;99.90;;;;;;5009644;28;20046;-85
2021/04/13 00:36:53;;;;;;;24.13;10.38;;;-0.30;99.90;;;;;;5010036;28;20050;-85
2021/04/13 00:39:24;;;;;;;21.42;9.88;;;-0.40;99.90;;;;;;4993161;28;20133;-85
2021/04/13 00:42:11;;;;;;;16.83;8.25;;;-0.20;99.90;;;;;;4993464;28;20057;-85
2021/04/13 00:44:46;;;;;;;17.88;8.45;;;-0.10;99.90;;;;;;4994536;28;20082;-85
2021/04/13 00:47:20;;;;;;;12.38;7.22;;;-0.20;99.90;;;;;;5009173;28;20210;-85
2021/04/13 00:49:51;;;;;;;12.57;7.43;;;-0.10;99.90;;;;;;4993379;28;20042;-85
2021/04/13 00:52:22;;;;;;;10.30;6.78;;;-0.20;99.90;;;;;;5009390;28;20497;-85
2021/04/13 00:54:56;;;;;;;14.45;7.60;;;-0.10;99.90;;;;;;5009641;28;20077;-86
2021/04/13 00:57:41;;;;;;;8.85;6.05;;;-0.30;99.90;;;;;;4994304;28;20157;-85
2021/04/13 01:00:12;;;;;;;7.53;5.88;;;-0.20;99.90;;;;;;4992835;28;20060;-85
2021/04/13 01:02:38;;;;;;;7.38;5.50;;;-0.20;99.90;;;;;;4994310;28;20125;-85
2021/04/13 01:05:14;;;;;;;8.52;5.05;;;-0.30;99.90;;;;;;4994249;28;20458;-85
2021/04/13 01:07:44;;;;;;;5.70;5.05;;;-0.30;99.90;;;;;;5009441;28;20046;-85
2021/04/13 01:10:33;;;;;;;7.65;4.80;;;-0.30;99.90;;;;;;4994232;28;20149;-85
2021/04/13 01:13:15;;;;;;;5.40;4.63;;;-0.30;99.90;;;;;;4994126;28;20084;-85
2021/04/13 01:15:49;;;;;;;5.22;4.28;;;-0.40;99.90;;;;;;4993171;28;20129;-85
2021/04/13 01:18:29;;;;;;;5.68;4.38;;;-0.30;99.90;;;;;;4993732;28;20076;-85
2021/04/13 01:21:27;;;;;;;5.43;4.50;;;-0.30;99.90;;;;;;5009168;28;20419;-85
2021/04/13 01:24:05;;;;;;;4.55;4.15;;;-0.30;99.90;;;;;;5009301;28;20089;-86
2021/04/13 01:26:33;;;;;;;6.07;4.28;;;-0.30;99.90;;;;;;5009199;28;20479;-85
2021/04/13 01:29:00;;;;;;;4.22;3.83;;;-0.40;99.90;;;;;;5008944;28;20108;-85
2021/04/13 01:31:45;;;;;;;3.92;3.63;;;-0.40;99.90;;;;;;5009286;28;20074;-86
2021/04/13 01:34:17;;;;;;;5.70;4.03;;;-0.60;99.90;;;;;;5009015;28;20137;-85
2021/04/13 01:36:48;;;;;;;3.88;3.55;;;-0.60;99.90;;;;;;5009231;28;20139;-85
2021/04/13 01:39:19;;;;;;;6.05;3.80;;;-0.70;99.90;;;;;;4992690;28;20133;-85
2021/04/13 01:44:30;;;;;;;6.32;4.30;;;-0.80;99.90;;;;;;4993801;28;20133;-85
2021/04/13 01:46:57;;;;;;;6.43;4.68;;;-0.80;99.90;;;;;;4994052;28;20153;-86
2021/04/13 01:49:24;;;;;;;8.15;5.53;;;-0.70;99.90;;;;;;4993768;28;20060;-86
2021/04/13 01:51:51;;;;;;;4.85;4.40;;;-0.70;99.90;;;;;;5008919;28;20105;-85
2021/04/13 01:54:18;;;;;;;5.18;4.68;;;-0.50;99.90;;;;;;4993734;28;20053;-85
2021/04/13 01:56:54;;;;;;;5.55;4.82;;;-0.50;99.90;;;;;;5009323;28;20054;-86
2021/04/13 01:59:40;;;;;;;6.38;4.90;;;-0.50;99.90;;;;;;5009859;28;20475;-86
2021/04/13 02:02:33;;;;;;;6.65;5.00;;;-0.50;99.90;;;;;;4997407;28;20138;-85
2021/04/13 02:05:09;;;;;;;8.45;5.28;;;-0.50;99.90;;;;;;4997689;28;20050;-85
2021/04/13 02:10:24;;;;;;;8.07;6.40;;;-0.40;99.90;;;;;;4997594;28;20057;-86
2021/04/13 02:12:58;;;;;;;8.48;5.88;;;-0.40;99.90;;;;;;5013233;28;20081;-86
2021/04/13 02:15:35;;;;;;;6.78;5.65;;;-0.40;99.90;;;;;;5013086;28;20141;-86
2021/04/13 02:18:06;;;;;;;6.15;5.55;;;-0.50;99.90;;;;;;4997440;28;20495;-85
2021/04/13 02:20:35;;;;;;;6.45;5.32;;;-0.50;99.90;;;;;;4997456;28;20082;-86
2021/04/13 02:23:05;;;;;;;12.80;6.15;;;-0.50;99.90;;;;;;4997348;28;20145;-86
2021/04/13 02:25:35;;;;;;;10.20;6.28;;;-0.40;99.90;;;;;;4997341;28;20380;-86
2021/04/13 02:28:04;;;;;;;10.10;7.43;;;-0.40;99.90;;;;;;4997186;28;20050;-86
2021/04/13 02:30:46;;;;;;;10.57;7.15;;;-0.40;99.90;;;;;;4997463;28;20399;-86
2021/04/13 02:33:19;;;;;;;6.90;6.10;;;-0.50;99.90;;;;;;5012334;28;20089;-86
2021/04/13 02:35:46;;;;;;;9.48;6.75;;;-0.50;99.90;;;;;;5012525;28;20455;-86
2021/04/13 02:38:21;;;;;;;7.25;6.55;;;-0.50;99.90;;;;;;5011935;28;20273;-86
2021/04/13 02:41:01;;;;;;;8.65;6.22;;;-0.60;99.90;;;;;;5012296;28;20055;-86
2021/04/13 02:43:37;;;;;;;9.00;7.05;;;-0.60;99.90;;;;;;5012337;28;20046;-86
2021/04/13 02:46:08;;;;;;;11.73;7.47;;;-0.60;99.90;;;;;;5012141;28;20133;-86
2021/04/13 02:48:43;;;;;;;9.38;7.30;;;-0.60;99.90;;;;;;4997043;28;20426;-86
2021/04/13 02:51:15;;;;;;;10.77;7.53;;;-0.60;99.90;;;;;;4997176;28;20133;-86
2021/04/13 02:53:55;;;;;;;8.88;7.15;;;-0.70;99.90;;;;;;5012454;28;20050;-86
2021/04/13 02:56:29;;;;;;;10.15;7.30;;;-0.60;99.90;;;;;;5012019;28;20074;-86
2021/04/13 02:59:12;;;;;;;8.35;6.82;;;-0.60;99.90;;;;;;4996706;28;20545;-86
2021/04/13 03:02:08;;;;;;;9.73;7.30;;;-0.60;99.90;;;;;;4996754;28;20050;-86
2021/04/13 03:04:44;;;;;;;10.63;8.18;;;-0.70;99.90;;;;;;4979979;28;20054;-85
2021/04/13 03:07:17;;;;;;;13.05;7.93;;;-0.60;99.90;;;;;;4996577;28;20470;-86
2021/04/13 03:09:43;;;;;;;10.60;7.53;;;-0.70;99.90;;;;;;5011564;28;20050;-86
2021/04/13 03:12:11;;;;;;;11.52;7.75;;;-0.80;99.90;;;;;;4995366;28;20058;-86
2021/04/13 03:14:45;;;;;;;14.80;9.68;;;-0.90;99.90;;;;;;4996634;28;20046;-86
2021/04/13 03:17:16;;;;;;;14.75;9.75;;;-0.90;99.90;;;;;;4996270;28;20137;-86
2021/04/13 03:19:45;;;;;;;16.85;10.73;;;-0.80;99.90;;;;;;4996420;28;20061;-86
2021/04/13 03:22:13;;;;;;;16.17;10.00;;;-0.90;99.90;;;;;;4995048;28;20137;-86
2021/04/13 03:24:42;;;;;;;19.55;11.77;;;-0.90;99.90;;;;;;5011462;28;20046;-87
2021/04/13 03:27:13;;;;;;;21.48;12.77;;;-0.90;99.90;;;;;;4995805;28;20051;-86
2021/04/13 03:29:51;;;;;;;23.95;13.10;;;-0.90;99.90;;;;;;4996245;28;20090;-86
2021/04/13 03:32:21;;;;;;;33.53;16.05;;;-0.70;99.90;;;;;;5011213;28;20545;-86
2021/04/13 03:34:48;;;;;;;34.33;16.75;;;-0.60;99.90;;;;;;5011446;28;20050;-87
2021/04/13 03:37:16;;;;;;;34.97;17.33;;;-0.70;99.90;;;;;;5011107;28;20054;-86
2021/04/13 03:39:44;;;;;;;34.00;17.70;;;-0.70;99.90;;;;;;5011059;28;20513;-86
2021/04/13 03:42:17;;;;;;;30.90;16.33;;;-0.60;99.90;;;;;;5011018;28;20495;-87
2021/04/13 03:44:44;;;;;;;28.60;16.60;;;-0.40;99.90;;;;;;5011501;28;20137;-86
2021/04/13 03:47:18;;;;;;;28.10;15.77;;;-0.30;99.90;;;;;;4996186;28;20058;-87
2021/04/13 03:49:46;;;;;;;30.90;16.58;;;-0.40;99.90;;;;;;4995962;28;20046;-87
2021/04/13 03:52:28;;;;;;;26.80;13.98;;;-0.40;99.90;;;;;;4995872;28;20422;-87
2021/04/13 03:54:54;;;;;;;22.10;13.50;;;-0.30;99.90;;;;;;4996508;28;20081;-87
2021/04/13 03:57:30;;;;;;;29.38;13.93;;;-0.20;99.90;;;;;;4995845;28;20053;-87
2021/04/13 03:59:58;;;;;;;33.20;15.35;;;-0.20;99.90;;;;;;4995459;28;20089;-87
2021/04/13 04:02:24;;;;;;;21.80;13.23;;;-0.30;99.90;;;;;;5010889;28;20108;-87
2021/04/13 04:05:06;;;;;;;21.60;12.63;;;-0.30;99.90;;;;;;5010807;28;20570;-86
2021/04/13 04:07:41;;;;;;;27.88;14.18;;;-0.20;99.90;;;;;;5010839;28;20082;-87
2021/04/13 04:10:35;;;;;;;27.60;14.90;;;-0.30;99.90;;;;;;4995302;28;20133;-86
2021/04/13 04:13:06;;;;;;;;;;;-0.30;99.90;;;;;;5011314;28;20054;-86
2021/04/13 04:15:48;;;;;;;23.08;12.98;;;-0.30;99.90;;;;;;4994279;28;19928;-86
2021/04/13 04:18:26;;;;;;;23.75;13.18;;;-0.30;99.90;;;;;;4995077;28;20089;-86
2021/04/13 04:20:52;;;;;;;28.83;15.18;;;-0.20;99.90;;;;;;4994349;28;20129;-86
2021/04/13 04:23:30;;;;;;;26.10;14.38;;;-0.30;99.90;;;;;;4994468;28;20077;-86
2021/04/13 04:26:03;;;;;;;27.73;14.55;;;-0.30;99.90;;;;;;4995052;28;20085;-86
2021/04/13 04:28:35;;;;;;;27.00;14.48;;;-0.30;99.90;;;;;;4995265;28;20054;-86
2021/04/13 04:31:35;;;;;;;30.10;14.85;;;-0.20;99.90;;;;;;5010389;28;20054;-86
2021/04/13 04:34:14;;;;;;;24.75;14.30;;;-0.30;99.90;;;;;;4993874;28;20058;-87
2021/04/13 04:36:48;;;;;;;22.60;14.20;;;-0.30;99.90;;;;;;4995033;28;20054;-87
2021/04/13 04:39:33;;;;;;;27.33;15.43;;;-0.30;99.90;;;;;;4994843;28;20125;-87
2021/04/13 04:42:06;;;;;;;29.95;16.30;;;-0.20;99.90;;;;;;5010001;28;20129;-86
2021/04/13 04:44:33;;;;;;;;;;;-0.10;99.90;;;;;;5010144;28;20121;-87
2021/04/13 04:47:00;;;;;;;22.63;14.27;;;-0.10;99.90;;;;;;4993506;28;20008;-85
2021/04/13 04:49:40;;;;;;;32.70;14.90;;;-0.10;99.90;;;;;;5009812;28;20065;-87
2021/04/13 04:52:07;;;;;;;23.42;14.45;;;-0.10;99.90;;;;;;5009699;28;20050;-87
2021/04/13 04:54:34;;;;;;;29.45;14.65;;;-0.10;99.90;;;;;;5009780;28;20084;-86
2021/04/13 04:57:01;;;;;;;25.88;13.98;;;-0.10;99.90;;;;;;4994583;28;20137;-87
2021/04/13 04:59:27;;;;;;;20.65;13.63;;;-0.20;99.90;;;;;;4994511;28;20333;-87
2021/04/13 05:01:53;;;;;;;22.67;13.98;;;-0.20;99.90;;;;;;4994084;28;20056;-87
2021/04/13 05:04:19;;;;;;;21.45;14.18;;;-0.30;99.90;;;;;;5009762;28;20207;-87
2021/04/13 05:06:46;;;;;;;21.60;14.95;;;-0.30;99.90;;;;;;4993371;28;20085;-87
2021/04/13 05:09:12;;;;;;;26.70;13.48;;;-0.40;99.90;;;;;;4994387;28;20145;-86
2021/04/13 05:11:38;;;;;;;23.88;14.98;;;-0.40;99.90;;;;;;5009322;28;20118;-87
2021/04/13 05:14:06;;;;;;;27.23;15.73;;;-0.30;99.90;;;;;;4994179;28;20073;-87
2021/04/13 05:16:32;;;;;;;22.80;15.38;;;-0.40;99.90;;;;;;4994368;28;20069;-87
2021/04/13 05:18:59;;;;;;;26.52;16.15;;;-0.30;99.90;;;;;;5009675;28;20471;-87
2021/04/13 05:21:25;;;;;;;25.75;15.52;;;-0.30;99.90;;;;;;5009574;28;20049;-87
2021/04/13 05:23:52;;;;;;;26.77;15.55;;;-0.30;99.90;;;;;;5009450;28;20078;-87
2021/04/13 05:26:18;;;;;;;23.90;15.25;;;-0.20;99.90;;;;;;5009402;28;20081;-87
2021/04/13 05:28:44;;;;;;;32.22;16.55;;;-0.20;99.90;;;;;;4994716;28;20108;-87
2021/04/13 05:31:10;;;;;;;23.83;15.60;;;-0.20;99.90;;;;;;4994560;28;20050;-86
2021/04/13 05:33:37;;;;;;;39.55;22.15;;;-0.20;99.90;;;;;;4993394;28;20054;-87
2021/04/13 05:36:04;;;;;;;78.68;34.00;;;-0.20;99.90;;;;;;5009346;28;20092;-87
2021/04/13 05:38:37;;;;;;;72.88;32.78;;;0.00;99.90;;;;;;4994142;28;20077;-87
2021/04/13 05:41:06;;;;;;;60.53;28.98;;;0.10;99.90;;;;;;4994414;28;20046;-87
2021/04/13 05:43:32;;;;;;;38.10;22.63;;;0.20;99.90;;;;;;5009302;28;20048;-87
2021/04/13 05:46:01;;;;;;;33.80;19.33;;;0.30;99.90;;;;;;4994063;28;20413;-87
2021/04/13 05:48:28;;;;;;;35.17;20.83;;;0.30;99.90;;;;;;5009322;28;20069;-87
2021/04/13 05:50:55;;;;;;;36.72;19.77;;;0.40;99.90;;;;;;4993815;28;20054;-86
2021/04/13 05:53:22;;;;;;;36.58;18.90;;;0.40;99.90;;;;;;4994094;28;20073;-87
2021/04/13 05:55:50;;;;;;;35.65;19.40;;;0.30;99.90;;;;;;5031013;28;20132;-86
2021/04/13 05:58:20;;;;;;;43.70;20.52;;;0.30;99.90;;;;;;5039269;28;20473;-86
2021/04/13 06:00:49;;;;;;;31.92;19.58;;;0.40;99.90;;;;;;5012512;28;20078;-87
2021/04/13 06:03:17;;;;;;;41.92;21.48;;;0.50;99.90;;;;;;5000442;28;20132;-87
2021/04/13 06:05:44;;;;;;;28.60;17.85;;;0.60;99.90;;;;;;5004156;28;20513;-87
2021/04/13 06:08:11;;;;;;;30.50;17.67;;;0.70;99.90;;;;;;5031469;28;20562;-87
2021/04/13 06:10:38;;;;;;;32.22;18.80;;;0.60;99.90;;;;;;5036992;28;20138;-87
2021/04/13 06:13:05;;;;;;;35.55;20.00;;;0.90;99.90;;;;;;5004621;28;20458;-86
2021/04/13 06:15:32;;;;;;;37.67;19.95;;;0.90;99.90;;;;;;5034309;28;20129;-87
2021/04/13 06:17:59;;;;;;;33.85;19.25;;;1.00;99.90;;;;;;5001141;28;20077;-87
2021/04/13 06:20:28;;;;;;;36.22;19.80;;;1.20;99.90;;;;;;4992579;28;20054;-87
2021/04/13 06:22:55;;;;;;;25.60;15.40;;;1.30;99.90;;;;;;4993768;28;20140;-87
2021/04/13 06:25:26;;;;;;;28.45;17.50;;;1.30;99.90;;;;;;4994027;28;20054;-87
2021/04/13 06:27:53;;;;;;;22.13;14.70;;;1.30;99.90;;;;;;4992691;28;20054;-87
2021/04/13 06:30:21;;;;;;;22.95;13.43;;;1.70;99.90;;;;;;4993446;28;20137;-87
2021/04/13 06:32:48;;;;;;;29.13;13.35;;;2.10;99.90;;;;;;4992437;28;20650;-86
2021/04/13 06:35:16;;;;;;;19.60;12.45;;;2.90;99.90;;;;;;4992383;28;20109;-86
2021/04/13 06:37:44;;;;;;;7.18;6.47;;;4.20;99.90;;;;;;4992341;28;20082;-86
2021/04/13 06:40:34;;;;;;;14.88;7.13;;;4.50;99.90;;;;;;4992303;28;20137;-86
2021/04/13 06:43:15;;;;;;;5.85;5.20;;;5.50;99.90;;;;;;4992996;28;20050;-85
2021/04/13 06:46:03;;;;;;;7.32;4.70;;;6.40;99.90;;;;;;4994828;28;20101;-84
2021/04/13 06:48:55;;;;;;;8.32;5.13;;;7.70;99.90;;;;;;4995572;28;20060;-85
2021/04/13 06:51:42;;;;;;;6.78;5.03;;;8.50;99.90;;;;;;4996615;28;20050;-85
2021/04/13 06:54:43;;;;;;;9.70;5.88;;;8.70;99.90;;;;;;4995082;28;20085;-84
2021/04/13 06:57:31;;;;;;;10.90;4.85;;;8.90;99.90;;;;;;4983736;28;20053;-85
2021/04/13 07:00:47;;;;;;;5.10;4.63;;;9.60;99.90;;;;;;4994642;28;20062;-84
2021/04/13 07:03:29;;;;;;;10.68;4.50;;;10.90;99.90;;;;;;4993423;28;20130;-84
2021/04/13 07:06:02;;;;;;;6.78;3.95;;;11.80;99.90;;;;;;4996064;28;20456;-84
2021/04/13 07:08:42;;;;;;;14.17;5.30;;;12.00;99.90;;;;;;4996060;28;20081;-84
2021/04/13 07:11:30;;;;;;;8.75;4.90;;;12.00;99.90;;;;;;4994777;28;20137;-83
2021/04/13 07:13:56;;;;;;;20.73;5.95;;;12.70;99.60;;;;;;4994662;28;20050;-84
2021/04/13 07:16:36;;;;;;;10.70;5.57;;;13.40;96.60;;;;;;4995837;28;20415;-84
2021/04/13 07:19:29;;;;;;;10.38;4.75;;;12.60;97.70;;;;;;4994668;28;20081;-84
2021/04/13 07:22:37;;;;;;;6.75;5.57;;;12.10;98.90;;;;;;4994458;28;20054;-83
2021/04/13 07:25:36;;;;;;;7.05;4.72;;;11.20;99.90;;;;;;4966347;28;20049;-83
2021/04/13 07:28:08;;;;;;;18.25;5.82;;;11.00;99.90;;;;;;4991840;28;20050;-84
2021/04/13 07:30:56;;;;;;;6.72;4.53;;;10.20;99.90;;;;;;4994678;28;20089;-84
2021/04/13 07:33:26;;;;;;;9.25;4.82;;;10.80;99.90;;;;;;4995543;28;20144;-84
2021/04/13 07:36:01;;;;;;;28.55;5.60;;;11.70;99.90;;;;;;4994327;28;20082;-83
2021/04/13 07:38:36;;;;;;;5.55;3.75;;;12.20;99.90;;;;;;4994591;28;20054;-84
2021/04/13 07:41:08;;;;;;;4.85;3.20;;;11.40;98.40;;;;;;4994344;28;20089;-84
2021/04/13 07:43:41;;;;;;;4.25;3.30;;;10.20;99.90;;;;;;4995307;28;20133;-83
2021/04/13 07:46:30;;;;;;;9.60;8.07;;;10.00;99.90;;;;;;4995354;28;20157;-84
2021/04/13 07:49:16;;;;;;;5.40;4.03;;;10.20;99.90;;;;;;4977949;28;20133;-83
2021/04/13 07:51:46;;;;;;;5.97;3.30;;;10.10;99.90;;;;;;4993890;28;20125;-83
2021/04/13 07:54:43;;;;;;;7.50;2.95;;;10.00;99.90;;;;;;4994621;28;20137;-83
2021/04/13 07:57:18;;;;;;;10.02;3.03;;;10.50;99.90;;;;;;4993550;28;20046;-83
2021/04/13 07:59:50;;;;;;;6.60;3.15;;;10.70;99.90;;;;;;4993554;28;20092;-83
2021/04/13 08:02:17;;;;;;;4.15;3.20;;;10.40;99.90;;;;;;4993266;28;20153;-83
2021/04/13 08:04:48;;;;;;;6.68;3.08;;;9.40;99.90;;;;;;4993563;28;20054;-84
2021/04/13 08:07:14;;;;;;;6.80;3.28;;;8.40;99.90;;;;;;4993227;28;20173;-83
2021/04/13 08:10:11;;;;;;;3.90;2.90;;;7.50;99.90;;;;;;4993492;28;20132;-83
2021/04/13 08:12:55;;;;;;;5.13;3.92;;;6.80;99.90;;;;;;4993160;28;20133;-83
2021/04/13 08:15:40;;;;;;;5.20;2.90;;;6.30;99.90;;;;;;4993389;28;20078;-83
2021/04/13 08:18:37;;;;;;;13.48;3.63;;;5.80;99.90;;;;;;4993052;28;20169;-83
2021/04/13 08:21:25;;;;;;;6.40;3.38;;;5.80;99.90;;;;;;4992937;28;20065;-83
2021/04/13 08:23:53;;;;;;;3.65;2.95;;;6.00;99.90;;;;;;4994533;28;20141;-84
2021/04/13 08:26:34;;;;;;;4.97;2.67;;;6.10;99.90;;;;;;4993410;28;20085;-83
2021/04/13 08:29:10;;;;;;;4.38;2.75;;;6.30;99.90;;;;;;4993405;28;20137;-83
2021/04/13 08:34:51;;;;;;;5.00;2.88;;;6.40;99.90;;;;;;4994208;28;20050;-84
2021/04/13 08:37:36;;;;;;;4.93;3.17;;;6.30;99.90;;;;;;4993015;28;20141;-83
2021/04/13 08:40:07;;;;;;;6.28;3.47;;;6.60;99.90;;;;;;4992580;28;20056;-83
2021/04/13 08:42:39;;;;;;;3.63;2.80;;;6.70;99.90;;;;;;4992893;28;20061;-83
2021/04/13 08:45:15;;;;;;;19.65;4.03;;;6.80;99.90;;;;;;4992771;28;20131;-83
2021/04/13 08:47:48;;;;;;;41.63;6.10;;;6.80;99.90;;;;;;4993886;28;20081;-82
2021/04/13 08:50:30;;;;;;;4.53;1.98;;;6.70;99.90;;;;;;4992550;28;20058;-83
2021/04/13 08:53:31;;;;;;;12.93;2.35;;;6.80;99.90;;;;;;4993575;28;20061;-83
2021/04/13 08:56:16;;;;;;;4.22;2.33;;;6.70;99.90;;;;;;4989848;28;20062;-84
2021/04/13 08:58:52;;;;;;;4.30;2.33;;;7.20;99.90;;;;;;4992510;28;20145;-83
2021/04/13 09:01:27;;;;;;;2.78;2.33;;;7.90;99.90;;;;;;4992197;28;20085;-83
2021/04/13 09:03:53;;;;;;;3.95;2.50;;;7.90;99.90;;;;;;4992543;28;20141;-83
2021/04/13 09:06:52;;;;;;;6.43;2.97;;;7.80;99.90;;;;;;4992783;28;20141;-83
2021/04/13 09:09:29;;;;;;;4.90;2.97;;;6.90;99.90;;;;;;5032641;28;20109;-84
2021/04/13 09:12:21;;;;;;;6.28;3.00;;;6.70;99.90;;;;;;5004330;28;20607;-82
2021/04/13 09:15:04;;;;;;;33.97;4.93;;;6.80;99.90;;;;;;5002831;28;20124;-83
2021/04/13 09:17:53;;;;;;;5.95;2.40;;;7.40;99.90;;;;;;5002025;28;20526;-83
2021/04/13 09:20:22;;;;;;;11.23;3.28;;;7.30;99.90;;;;;;5001545;28;20418;-83
2021/04/13 09:23:03;;;;;;;4.82;2.17;;;8.00;99.90;;;;;;4999466;28;20141;-83
2021/04/13 09:25:42;;;;;;;4.13;2.42;;;8.70;99.60;;;;;;5000872;28;20494;-83
2021/04/13 09:28:18;;;;;;;14.48;2.97;;;8.80;98.40;;;;;;5002650;28;20573;-83
2021/04/13 09:30:47;;;;;;;5.10;2.78;;;8.70;98.90;;;;;;5001166;28;20050;-83
2021/04/13 09:33:19;;;;;;;8.55;3.17;;;8.80;99.90;;;;;;4996454;28;20168;-82
2021/04/13 09:35:51;;;;;;;5.18;2.65;;;8.50;99.90;;;;;;5018504;28;20226;-83
2021/04/13 09:38:52;;;;;;;9.52;3.25;;;8.20;99.90;;;;;;5002496;28;20136;-83
2021/04/13 09:41:35;;;;;;;4.63;2.88;;;8.10;99.90;;;;;;5017634;28;20141;-83
2021/04/13 09:44:40;;;;;;;5.68;2.75;;;7.50;99.90;;;;;;5000606;28;20054;-83
2021/04/13 09:47:27;;;;;;;3.33;2.75;;;7.10;99.90;;;;;;5001133;28;20609;-83
2021/04/13 09:49:59;;;;;;;10.68;3.10;;;6.90;99.90;;;;;;4995433;28;20485;-83
2021/04/13 09:52:41;;;;;;;10.23;2.92;;;7.20;99.90;;;;;;4991942;28;20108;-83
2021/04/13 09:55:35;;;;;;;3.72;2.58;;;7.60;99.90;;;;;;4993079;28;20046;-83
2021/04/13 09:58:13;;;;;;;2.65;2.28;;;8.40;98.70;;;;;;4991944;28;20054;-83
2021/04/13 10:01:05;;;;;;;2.30;2.20;;;8.60;98.30;;;;;;4991733;28;20077;-83
2021/04/13 10:04:09;;;;;;;2.70;2.47;;;8.70;95.60;;;;;;5006516;28;20133;-83
2021/04/13 10:06:37;;;;;;;5.82;2.40;;;8.70;96.50;;;;;;5017960;28;20176;-84
2021/04/13 10:09:24;;;;;;;3.35;2.20;;;8.30;93.70;;;;;;5000622;28;20054;-83
2021/04/13 10:12:12;;;;;;;19.60;2.78;;;8.00;95.20;;;;;;5003039;28;20054;-84
2021/04/13 10:15:07;;;;;;;3.58;2.10;;;8.30;95.90;;;;;;5016146;28;20402;-83
2021/04/13 10:18:15;;;;;;;4.93;2.10;;;9.60;94.70;;;;;;5010247;28;20136;-83
2021/04/13 10:21:00;;;;;;;7.18;2.33;;;10.50;90.50;;;;;;4978954;28;20043;-83
2021/04/13 10:23:41;;;;;;;5.65;1.88;;;11.70;82.20;;;;;;4995913;28;20054;-84
2021/04/13 10:26:41;;;;;;;6.05;1.90;;;12.00;72.70;;;;;;4995629;28;20569;-83
2021/04/13 10:29:52;;;;;;;2.53;2.08;;;11.90;74.70;;;;;;4995650;28;20136;-84
2021/04/13 10:32:37;;;;;;;3.25;1.80;;;11.40;75.30;;;;;;4996570;28;20137;-83
2021/04/13 10:35:23;;;;;;;2.38;1.83;;;10.70;76.00;;;;;;4996545;28;20054;-83
2021/04/13 10:38:08;;;;;;;3.13;1.35;;;9.50;79.10;;;;;;4995306;28;20050;-83
2021/04/13 10:41:02;;;;;;;6.55;1.88;;;9.40;84.00;;;;;;4995310;28;20100;-84
2021/04/13 10:44:06;;;;;;;2.47;1.48;;;9.20;86.90;;;;;;4996556;28;20050;-83
2021/04/13 10:46:40;;;;;;;1.65;1.23;;;9.60;89.50;;;;;;4995290;28;20137;-83
2021/04/13 10:49:34;;;;;;;4.40;1.35;;;9.90;79.40;;;;;;4994896;28;20053;-82
2021/04/13 10:52:12;;;;;;;2.20;1.30;;;9.90;87.40;;;;;;4996103;28;20116;-84
2021/04/13 10:54:53;;;;;;;8.05;1.35;;;9.60;81.60;;;;;;4994911;28;20137;-83
2021/04/13 10:57:19;;;;;;;2.25;1.25;;;9.80;81.30;;;;;;4994649;28;20112;-83
2021/04/13 10:59:58;;;;;;;2.92;1.48;;;9.80;79.20;;;;;;4994726;28;20149;-84
2021/04/13 11:02:55;;;;;;;2.88;1.60;;;9.00;82.00;;;;;;4995718;28;20058;-84
2021/04/13 11:05:59;;;;;;;1.55;1.20;;;8.20;90.10;;;;;;4994786;28;20046;-83
2021/04/13 11:08:55;;;;;;;3.70;1.40;;;7.50;95.60;;;;;;4994421;28;20046;-83
2021/04/13 11:11:46;;;;;;;3.10;1.20;;;7.90;97.40;;;;;;4994606;28;20137;-84
2021/04/13 11:14:55;;;;;;;0.90;0.90;;;7.50;93.40;;;;;;4994464;28;20133;-83
2021/04/13 11:17:42;;;;;;;1.58;1.08;;;7.60;95.10;;;;;;4985610;28;20483;-83
2021/04/13 11:20:14;;;;;;;3.83;1.10;;;8.00;91.60;;;;;;4994194;28;20157;-83
2021/04/13 11:23:18;;;;;;;3.50;1.17;;;9.70;87.00;;;;;;4995574;28;20089;-83
2021/04/13 11:26:17;;;;;;;3.90;0.90;;;9.60;76.90;;;;;;4994249;28;20150;-83
2021/04/13 11:28:50;;;;;;;1.80;0.80;;;10.10;76.20;;;;;;4992032;28;20406;-83
2021/04/13 11:31:22;;;;;;;2.88;1.27;;;10.10;76.20;;;;;;4995159;28;20137;-83
2021/04/13 11:34:17;;;;;;;3.35;1.30;;;9.50;80.20;;;;;;4994016;28;20054;-84
2021/04/13 11:36:43;;;;;;;;;;;9.30;79.90;;;;;;4994296;28;20046;-83
2021/04/13 11:39:32;;;;;;;3.38;1.77;;;8.80;85.40;;;;;;4994814;28;19928;-83
2021/04/13 11:42:33;;;;;;;2.40;1.75;;;8.50;91.70;;;;;;4994766;28;20471;-83
2021/04/13 11:45:18;;;;;;;2.95;1.90;;;8.40;91.20;;;;;;4995065;28;20455;-84
2021/04/13 11:47:53;;;;;;;4.38;2.00;;;7.60;94.30;;;;;;4993736;28;20570;-83
2021/04/13 11:50:39;;;;;;;6.32;2.25;;;6.80;99.90;;;;;;4993706;28;20129;-83
2021/04/13 11:53:08;;;;;;;3.90;1.88;;;7.30;99.90;;;;;;4993786;28;20054;-83
2021/04/13 11:55:44;;;;;;;8.95;2.17;;;7.50;99.90;;;;;;4994834;28;20125;-83
2021/04/13 11:58:17;;;;;;;3.22;2.17;;;7.80;99.90;;;;;;4993346;28;20101;-83
2021/04/13 12:00:45;;;;;;;4.03;1.75;;;8.10;99.90;;;;;;4993516;28;20082;-83
2021/04/13 12:03:17;;;;;;;6.22;1.95;;;8.40;99.30;;;;;;4994834;28;20104;-83
2021/04/13 12:05:49;;;;;;;11.63;6.85;;;9.00;96.50;;;;;;4994666;28;20053;-84
2021/04/13 12:08:34;;;;;;;3.47;2.83;;;9.40;96.00;;;;;;4994455;28;20050;-83
2021/04/13 12:11:07;;;;;;;6.63;1.65;;;9.60;88.00;;;;;;4993303;28;20050;-84
2021/04/13 12:13:45;;;;;;;4.72;1.33;;;9.50;85.50;;;;;;4993409;28;20072;-83
2021/04/13 12:16:34;;;;;;;8.27;4.82;;;9.50;88.80;;;;;;4994328;28;20145;-83
2021/04/13 12:19:12;;;;;;;6.55;1.60;;;9.60;82.00;;;;;;4990123;28;20451;-83
2021/04/13 12:21:45;;;;;;;2.30;1.30;;;9.50;82.40;;;;;;4994299;28;20082;-84
2021/04/13 12:24:41;;;;;;;8.07;1.48;;;9.60;83.60;;;;;;4992815;28;20054;-83
2021/04/13 12:27:26;;;;;;;7.72;1.48;;;9.50;82.90;;;;;;4994031;28;20074;-83
2021/04/13 12:30:12;;;;;;;9.18;1.50;;;9.20;83.80;;;;;;4992925;28;20100;-82
2021/04/13 12:32:42;;;;;;;10.40;3.53;;;9.00;86.20;;;;;;4993127;28;20133;-83
2021/04/13 12:35:09;;;;;;;2.80;1.10;;;9.00;86.50;;;;;;4992790;28;20051;-83
2021/04/13 12:37:44;;;;;;;3.00;1.40;;;9.10;89.30;;;;;;4993842;28;20575;-84
2021/04/13 12:40:26;;;;;;;8.85;1.80;;;9.10;84.10;;;;;;4992642;28;20058;-83
2021/04/13 12:43:03;;;;;;;15.30;1.85;;;8.80;88.10;;;;;;4992284;28;20117;-83
2021/04/13 12:45:40;;;;;;;4.00;1.30;;;8.60;91.40;;;;;;4992677;28;20133;-83
2021/04/13 12:48:18;;;;;;;3.83;1.65;;;8.70;91.00;;;;;;4993415;28;20065;-83
2021/04/13 12:50:50;;;;;;;5.65;1.77;;;8.20;93.00;;;;;;4993953;28;20057;-84
2021/04/13 12:53:20;;;;;;;9.20;1.40;;;7.90;95.30;;;;;;4993900;28;20128;-83
2021/04/13 12:55:59;;;;;;;5.60;1.83;;;7.80;97.40;;;;;;4994116;28;20064;-83
2021/04/13 12:58:33;;;;;;;1.27;1.13;;;8.00;95.80;;;;;;4993601;28;20073;-83
2021/04/13 13:00:59;;;;;;;7.75;1.80;;;8.20;96.30;;;;;;4993290;28;20848;-83
2021/04/13 13:03:37;;;;;;;4.28;1.40;;;8.50;96.70;;;;;;4992393;28;20042;-83
2021/04/13 13:06:27;;;;;;;7.68;1.95;;;8.70;93.60;;;;;;4992208;28;20133;-82
2021/04/13 13:09:01;;;;;;;2.78;1.50;;;9.10;93.80;;;;;;4992113;28;20113;-83
2021/04/13 13:11:28;;;;;;;5.68;1.70;;;9.00;92.30;;;;;;4992456;28;20074;-83
2021/04/13 13:13:55;;;;;;;5.20;1.52;;;9.30;92.70;;;;;;4993403;28;20043;-83
2021/04/13 13:16:39;;;;;;;5.90;1.50;;;9.10;91.80;;;;;;4993487;28;20471;-85
2021/04/13 13:19:06;;;;;;;2.60;1.45;;;8.90;92.10;;;;;;4992169;28;20053;-83
2021/04/13 13:21:54;;;;;;;7.78;2.20;;;8.70;92.90;;;;;;4993303;28;20133;-84
2021/04/13 13:24:26;;;;;;;7.55;2.10;;;8.70;94.40;;;;;;4992238;28;20133;-83
2021/04/13 13:26:53;;;;;;;3.97;1.92;;;8.40;95.40;;;;;;4992081;28;20054;-84
2021/04/13 13:29:20;;;;;;;4.45;2.28;;;8.50;96.90;;;;;;4993242;28;20129;-84
2021/04/13 13:31:48;;;;;;;8.07;2.38;;;8.40;96.90;;;;;;4991913;28;20046;-84
2021/04/13 13:34:22;;;;;;;2.95;1.70;;;8.30;97.00;;;;;;4991996;28;20050;-83
2021/04/13 13:36:50;;;;;;;5.93;1.90;;;8.30;95.00;;;;;;4991940;28;20050;-84
2021/04/13 13:39:27;;;;;;;1.77;1.05;;;8.10;95.00;;;;;;4992086;28;20054;-84
2021/04/13 13:42:15;;;;;;;6.10;1.80;;;8.10;93.50;;;;;;4991510;28;20484;-84
2021/04/13 13:44:50;;;;;;;5.82;1.25;;;8.00;90.40;;;;;;4992825;28;20105;-84